sensor_id;sensor_type;location;lat;lon;timestamp;temperature;humidity
21678;DHT22;11000;50.360;7.582;2022-07-03T00:00:35;19.70;99.90
21678;DHT22;11000;50.360;7.582;2022-07-03T00:02:56;19.70;99.90
21678;DHT22;11000;50.360;7.582;2022-07-03T00:05:16;19.60;99.90
21678;DHT22;11000;50.360;7.582;2022-07-03T00:07:37;19.60;99.90
21678;DHT22;11000;50.360;7.582;2022-07-03T00:09:58;19.70;99.90
21678;DHT22;11000;50.360;7.582;2022-07-03T00:12:19;19.60;99.90
21678;DHT22;11000;50.360;7.582;2022-07-03T00:14:40;19.50;99.90
21678;DHT22;11000;50.360;7.582;2022-07-03T00:17:00;19.50;99.90
21678;DHT22;11000;50.360;7.582;2022-07-03T00:19:21;19.50;99.90
21678;DHT22;11000;50.360;7.582;2022-07-03T00:21:48;19.50;99.90
21678;DHT22;11000;50.360;7.582;2022-07-03T00:24:18;19.40;99.90
21678;DHT22;11000;50.360;7.582;2022-07-03T00:26:41;19.40;99.90
21678;DHT22;11000;50.360;7.582;2022-07-03T00:29:03;19.30;99.90
21678;DHT22;11000;50.360;7.582;2022-07-03T00:31:25;19.20;99.90
21678;DHT22;11000;50.360;7.582;2022-07-03T00:33:48;19.20;99.90
21678;DHT22;11000;50.360;7.582;2022-07-03T00:36:11;19.20;99.90
21678;DHT22;11000;50.360;7.582;2022-07-03T00:38:32;19.10;99.90
21678;DHT22;11000;50.360;7.582;2022-07-03T00:40:53;19.10;99.90
21678;DHT22;11000;50.360;7.582;2022-07-03T00:43:15;19.00;99.90
21678;DHT22;11000;50.360;7.582;2022-07-03T00:45:39;18.90;99.90
21678;DHT22;11000;50.360;7.582;2022-07-03T00:48:04;18.90;99.90
21678;DHT22;11000;50.360;7.582;2022-07-03T00:50:35;18.80;99.90
21678;DHT22;11000;50.360;7.582;2022-07-03T00:52:57;18.80;99.90
21678;DHT22;11000;50.360;7.582;2022-07-03T00:55:21;18.80;99.90
21678;DHT22;11000;50.360;7.582;2022-07-03T00:57:46;18.70;99.90
21678;DHT22;11000;50.360;7.582;2022-07-03T01:00:07;18.70;99.90
21678;DHT22;11000;50.360;7.582;2022-07-03T01:10:54;18.60;99.90
21678;DHT22;11000;50.360;7.582;2022-07-03T01:21:11;18.70;99.90
21678;DHT22;11000;50.360;7.582;2022-07-03T01:23:53;18.60;99.90
21678;DHT22;11000;50.360;7.582;2022-07-03T01:26:17;18.50;99.90
21678;DHT22;11000;50.360;7.582;2022-07-03T01:28:39;18.40;99.90
21678;DHT22;11000;50.360;7.582;2022-07-03T01:31:02;18.40;99.90
21678;DHT22;11000;50.360;7.582;2022-07-03T01:33:25;18.40;99.90
21678;DHT22;11000;50.360;7.582;2022-07-03T01:36:03;18.30;99.90
21678;DHT22;11000;50.360;7.582;2022-07-03T01:38:34;18.30;99.90
21678;DHT22;11000;50.360;7.582;2022-07-03T01:40:57;18.30;99.90
21678;DHT22;11000;50.360;7.582;2022-07-03T01:43:19;18.30;99.90
21678;DHT22;11000;50.360;7.582;2022-07-03T01:45:43;18.30;99.90
21678;DHT22;11000;50.360;7.582;2022-07-03T01:48:05;18.30;99.90
21678;DHT22;11000;50.360;7.582;2022-07-03T01:50:28;18.20;99.90
21678;DHT22;11000;50.360;7.582;2022-07-03T01:52:50;18.20;99.90
21678;DHT22;11000;50.360;7.582;2022-07-03T01:55:13;18.10;99.90
21678;DHT22;11000;50.360;7.582;2022-07-03T01:57:42;18.00;99.90
21678;DHT22;11000;50.360;7.582;2022-07-03T02:00:03;17.90;99.90
21678;DHT22;11000;50.360;7.582;2022-07-03T02:02:33;17.90;99.90
21678;DHT22;11000;50.360;7.582;2022-07-03T02:04:59;17.90;99.90
21678;DHT22;11000;50.360;7.582;2022-07-03T02:07:36;17.80;99.90
21678;DHT22;11000;50.360;7.582;2022-07-03T02:10:06;17.80;99.90
21678;DHT22;11000;50.360;7.582;2022-07-03T02:12:34;17.80;99.90
21678;DHT22;11000;50.360;7.582;2022-07-03T02:15:04;17.80;99.90
21678;DHT22;11000;50.360;7.582;2022-07-03T02:17:27;17.90;99.90
21678;DHT22;11000;50.360;7.582;2022-07-03T02:19:59;17.80;99.90
21678;DHT22;11000;50.360;7.582;2022-07-03T02:22:34;17.80;99.90
21678;DHT22;11000;50.360;7.582;2022-07-03T02:25:02;17.80;99.90
21678;DHT22;11000;50.360;7.582;2022-07-03T02:27:25;17.70;99.90
21678;DHT22;11000;50.360;7.582;2022-07-03T02:30:05;17.70;99.90
21678;DHT22;11000;50.360;7.582;2022-07-03T02:32:28;17.80;99.90
21678;DHT22;11000;50.360;7.582;2022-07-03T02:35:05;17.70;99.90
21678;DHT22;11000;50.360;7.582;2022-07-03T02:37:29;17.60;99.90
21678;DHT22;11000;50.360;7.582;2022-07-03T02:39:52;17.60;99.90
21678;DHT22;11000;50.360;7.582;2022-07-03T02:42:29;17.60;99.90
21678;DHT22;11000;50.360;7.582;2022-07-03T02:44:52;17.60;99.90
21678;DHT22;11000;50.360;7.582;2022-07-03T02:50:04;17.50;99.90
21678;DHT22;11000;50.360;7.582;2022-07-03T02:55:07;17.50;99.90
21678;DHT22;11000;50.360;7.582;2022-07-03T02:57:39;17.40;99.90
21678;DHT22;11000;50.360;7.582;2022-07-03T03:00:04;17.40;99.90
21678;DHT22;11000;50.360;7.582;2022-07-03T03:02:54;17.40;99.90
21678;DHT22;11000;50.360;7.582;2022-07-03T03:10:12;17.40;99.90
21678;DHT22;11000;50.360;7.582;2022-07-03T03:12:36;17.30;99.90
21678;DHT22;11000;50.360;7.582;2022-07-03T03:15:03;17.30;99.90
21678;DHT22;11000;50.360;7.582;2022-07-03T03:17:24;17.20;99.90
21678;DHT22;11000;50.360;7.582;2022-07-03T03:19:52;17.20;99.90
21678;DHT22;11000;50.360;7.582;2022-07-03T03:24:52;17.00;99.90
21678;DHT22;11000;50.360;7.582;2022-07-03T03:27:13;17.10;99.90
21678;DHT22;11000;50.360;7.582;2022-07-03T03:29:34;17.00;99.90
21678;DHT22;11000;50.360;7.582;2022-07-03T03:31:55;17.10;99.90
21678;DHT22;11000;50.360;7.582;2022-07-03T03:34:15;17.00;99.90
21678;DHT22;11000;50.360;7.582;2022-07-03T03:36:37;16.80;99.90
21678;DHT22;11000;50.360;7.582;2022-07-03T03:38:58;16.80;99.90
21678;DHT22;11000;50.360;7.582;2022-07-03T03:41:18;16.80;99.90
21678;DHT22;11000;50.360;7.582;2022-07-03T03:43:39;16.90;99.90
21678;DHT22;11000;50.360;7.582;2022-07-03T03:46:01;16.90;99.90
21678;DHT22;11000;50.360;7.582;2022-07-03T03:48:21;16.90;99.90
21678;DHT22;11000;50.360;7.582;2022-07-03T03:50:42;17.00;99.90
21678;DHT22;11000;50.360;7.582;2022-07-03T03:53:04;17.00;99.90
21678;DHT22;11000;50.360;7.582;2022-07-03T03:55:24;17.10;99.90
21678;DHT22;11000;50.360;7.582;2022-07-03T03:57:45;16.90;99.90
21678;DHT22;11000;50.360;7.582;2022-07-03T04:00:06;16.90;99.90
21678;DHT22;11000;50.360;7.582;2022-07-03T04:02:27;16.90;99.90
21678;DHT22;11000;50.360;7.582;2022-07-03T04:04:48;16.90;99.90
21678;DHT22;11000;50.360;7.582;2022-07-03T04:07:08;16.90;99.90
21678;DHT22;11000;50.360;7.582;2022-07-03T04:09:29;17.00;99.90
21678;DHT22;11000;50.360;7.582;2022-07-03T04:11:49;17.00;99.90
21678;DHT22;11000;50.360;7.582;2022-07-03T04:14:10;17.00;99.90
21678;DHT22;11000;50.360;7.582;2022-07-03T04:16:30;17.00;99.90
21678;DHT22;11000;50.360;7.582;2022-07-03T04:18:51;17.00;99.90
21678;DHT22;11000;50.360;7.582;2022-07-03T04:21:11;17.00;99.90
21678;DHT22;11000;50.360;7.582;2022-07-03T04:23:32;17.00;99.90
21678;DHT22;11000;50.360;7.582;2022-07-03T04:25:52;17.00;99.90
21678;DHT22;11000;50.360;7.582;2022-07-03T04:28:13;17.00;99.90
21678;DHT22;11000;50.360;7.582;2022-07-03T04:30:34;17.00;99.90
21678;DHT22;11000;50.360;7.582;2022-07-03T04:32:54;17.00;99.90
21678;DHT22;11000;50.360;7.582;2022-07-03T04:35:15;17.10;99.90
21678;DHT22;11000;50.360;7.582;2022-07-03T04:37:35;17.00;99.90
21678;DHT22;11000;50.360;7.582;2022-07-03T04:39:56;17.00;99.90
21678;DHT22;11000;50.360;7.582;2022-07-03T04:42:17;17.00;99.90
21678;DHT22;11000;50.360;7.582;2022-07-03T04:44:37;16.80;99.90
21678;DHT22;11000;50.360;7.582;2022-07-03T04:46:58;16.90;99.90
21678;DHT22;11000;50.360;7.582;2022-07-03T04:49:18;16.80;99.90
21678;DHT22;11000;50.360;7.582;2022-07-03T04:51:38;16.80;99.90
21678;DHT22;11000;50.360;7.582;2022-07-03T04:53:59;17.00;99.90
21678;DHT22;11000;50.360;7.582;2022-07-03T04:56:19;17.10;99.90
21678;DHT22;11000;50.360;7.582;2022-07-03T04:58:40;17.20;99.90
21678;DHT22;11000;50.360;7.582;2022-07-03T05:01:00;17.40;99.90
21678;DHT22;11000;50.360;7.582;2022-07-03T05:03:21;17.40;99.90
21678;DHT22;11000;50.360;7.582;2022-07-03T05:05:41;17.60;99.90
21678;DHT22;11000;50.360;7.582;2022-07-03T05:08:02;17.70;99.90
21678;DHT22;11000;50.360;7.582;2022-07-03T05:10:23;17.80;99.90
21678;DHT22;11000;50.360;7.582;2022-07-03T05:12:43;17.90;99.90
21678;DHT22;11000;50.360;7.582;2022-07-03T05:15:04;18.00;99.90
21678;DHT22;11000;50.360;7.582;2022-07-03T05:17:25;18.00;99.90
21678;DHT22;11000;50.360;7.582;2022-07-03T05:19:46;17.90;99.90
21678;DHT22;11000;50.360;7.582;2022-07-03T05:22:06;17.90;99.90
21678;DHT22;11000;50.360;7.582;2022-07-03T05:24:27;18.00;99.90
21678;DHT22;11000;50.360;7.582;2022-07-03T05:26:47;18.30;99.90
21678;DHT22;11000;50.360;7.582;2022-07-03T05:29:08;18.50;99.90
21678;DHT22;11000;50.360;7.582;2022-07-03T05:31:28;18.70;99.90
21678;DHT22;11000;50.360;7.582;2022-07-03T05:33:49;18.90;99.90
21678;DHT22;11000;50.360;7.582;2022-07-03T05:36:10;19.30;99.90
21678;DHT22;11000;50.360;7.582;2022-07-03T05:38:31;19.50;99.90
21678;DHT22;11000;50.360;7.582;2022-07-03T05:41:11;19.30;99.90
21678;DHT22;11000;50.360;7.582;2022-07-03T05:43:31;19.20;99.90
21678;DHT22;11000;50.360;7.582;2022-07-03T05:45:52;18.90;99.90
21678;DHT22;11000;50.360;7.582;2022-07-03T05:48:12;19.10;99.90
21678;DHT22;11000;50.360;7.582;2022-07-03T05:50:33;19.50;99.90
21678;DHT22;11000;50.360;7.582;2022-07-03T05:52:53;19.90;99.90
21678;DHT22;11000;50.360;7.582;2022-07-03T05:55:14;20.20;99.90
21678;DHT22;11000;50.360;7.582;2022-07-03T05:57:35;20.50;99.90
21678;DHT22;11000;50.360;7.582;2022-07-03T05:59:55;20.70;99.90
21678;DHT22;11000;50.360;7.582;2022-07-03T06:02:16;21.10;99.90
21678;DHT22;11000;50.360;7.582;2022-07-03T06:04:37;21.00;99.90
21678;DHT22;11000;50.360;7.582;2022-07-03T06:06:58;20.80;99.90
21678;DHT22;11000;50.360;7.582;2022-07-03T06:09:18;21.20;99.90
21678;DHT22;11000;50.360;7.582;2022-07-03T06:11:38;21.50;99.90
21678;DHT22;11000;50.360;7.582;2022-07-03T06:13:59;21.80;99.90
21678;DHT22;11000;50.360;7.582;2022-07-03T06:16:20;21.90;99.90
21678;DHT22;11000;50.360;7.582;2022-07-03T06:18:40;22.20;99.90
21678;DHT22;11000;50.360;7.582;2022-07-03T06:21:01;22.50;99.90
21678;DHT22;11000;50.360;7.582;2022-07-03T06:23:21;22.60;99.90
21678;DHT22;11000;50.360;7.582;2022-07-03T06:25:42;22.00;99.90
21678;DHT22;11000;50.360;7.582;2022-07-03T06:28:02;22.20;99.90
21678;DHT22;11000;50.360;7.582;2022-07-03T06:30:23;22.50;99.90
21678;DHT22;11000;50.360;7.582;2022-07-03T06:32:44;22.70;99.90
21678;DHT22;11000;50.360;7.582;2022-07-03T06:35:05;23.10;99.90
21678;DHT22;11000;50.360;7.582;2022-07-03T06:37:26;23.40;99.90
21678;DHT22;11000;50.360;7.582;2022-07-03T06:39:46;23.90;99.90
21678;DHT22;11000;50.360;7.582;2022-07-03T06:42:07;24.20;99.90
21678;DHT22;11000;50.360;7.582;2022-07-03T06:44:27;24.60;99.90
21678;DHT22;11000;50.360;7.582;2022-07-03T06:46:48;24.60;99.90
21678;DHT22;11000;50.360;7.582;2022-07-03T06:49:08;24.60;99.90
21678;DHT22;11000;50.360;7.582;2022-07-03T06:51:29;24.70;99.90
21678;DHT22;11000;50.360;7.582;2022-07-03T06:53:49;24.20;99.90
21678;DHT22;11000;50.360;7.582;2022-07-03T06:56:10;23.00;99.90
21678;DHT22;11000;50.360;7.582;2022-07-03T06:58:30;23.00;99.90
21678;DHT22;11000;50.360;7.582;2022-07-03T07:00:51;23.40;99.90
21678;DHT22;11000;50.360;7.582;2022-07-03T07:03:11;23.60;99.90
21678;DHT22;11000;50.360;7.582;2022-07-03T07:05:32;24.00;99.90
21678;DHT22;11000;50.360;7.582;2022-07-03T07:07:53;24.00;99.90
21678;DHT22;11000;50.360;7.582;2022-07-03T07:10:13;24.20;99.90
21678;DHT22;11000;50.360;7.582;2022-07-03T07:12:34;24.50;99.90
21678;DHT22;11000;50.360;7.582;2022-07-03T07:14:54;24.70;99.90
21678;DHT22;11000;50.360;7.582;2022-07-03T07:17:15;25.10;99.90
21678;DHT22;11000;50.360;7.582;2022-07-03T07:19:35;25.50;99.90
21678;DHT22;11000;50.360;7.582;2022-07-03T07:21:56;25.50;99.90
21678;DHT22;11000;50.360;7.582;2022-07-03T07:24:17;25.90;99.90
21678;DHT22;11000;50.360;7.582;2022-07-03T07:26:37;26.00;99.90
21678;DHT22;11000;50.360;7.582;2022-07-03T07:28:58;26.80;99.90
21678;DHT22;11000;50.360;7.582;2022-07-03T07:31:18;26.80;99.90
21678;DHT22;11000;50.360;7.582;2022-07-03T07:33:39;26.30;99.90
21678;DHT22;11000;50.360;7.582;2022-07-03T07:35:59;25.70;99.90
21678;DHT22;11000;50.360;7.582;2022-07-03T07:38:20;25.10;99.90
21678;DHT22;11000;50.360;7.582;2022-07-03T07:40:41;25.20;99.90
21678;DHT22;11000;50.360;7.582;2022-07-03T07:43:01;25.70;99.90
21678;DHT22;11000;50.360;7.582;2022-07-03T07:45:22;26.20;99.90
21678;DHT22;11000;50.360;7.582;2022-07-03T07:47:42;26.40;99.90
21678;DHT22;11000;50.360;7.582;2022-07-03T07:50:04;26.50;99.90
21678;DHT22;11000;50.360;7.582;2022-07-03T07:52:24;27.10;99.90
21678;DHT22;11000;50.360;7.582;2022-07-03T07:54:45;27.30;99.90
21678;DHT22;11000;50.360;7.582;2022-07-03T07:57:05;27.60;99.20
21678;DHT22;11000;50.360;7.582;2022-07-03T07:59:26;28.10;97.10
21678;DHT22;11000;50.360;7.582;2022-07-03T08:01:46;28.30;94.50
21678;DHT22;11000;50.360;7.582;2022-07-03T08:04:26;28.50;92.50
21678;DHT22;11000;50.360;7.582;2022-07-03T08:07:05;28.60;90.40
21678;DHT22;11000;50.360;7.582;2022-07-03T08:09:25;28.80;90.20
21678;DHT22;11000;50.360;7.582;2022-07-03T08:11:46;29.10;89.30
21678;DHT22;11000;50.360;7.582;2022-07-03T08:14:06;29.70;85.80
21678;DHT22;11000;50.360;7.582;2022-07-03T08:16:28;29.30;85.90
21678;DHT22;11000;50.360;7.582;2022-07-03T08:18:48;29.20;87.50
21678;DHT22;11000;50.360;7.582;2022-07-03T08:21:09;28.10;91.00
21678;DHT22;11000;50.360;7.582;2022-07-03T08:23:29;28.20;90.30
21678;DHT22;11000;50.360;7.582;2022-07-03T08:25:50;27.80;91.20
21678;DHT22;11000;50.360;7.582;2022-07-03T08:28:11;27.30;92.90
21678;DHT22;11000;50.360;7.582;2022-07-03T08:30:31;27.40;94.00
21678;DHT22;11000;50.360;7.582;2022-07-03T08:32:54;27.30;94.50
21678;DHT22;11000;50.360;7.582;2022-07-03T08:35:16;27.80;93.10
21678;DHT22;11000;50.360;7.582;2022-07-03T08:37:36;28.00;88.50
21678;DHT22;11000;50.360;7.582;2022-07-03T08:40:02;28.00;90.80
21678;DHT22;11000;50.360;7.582;2022-07-03T08:42:23;28.70;87.70
21678;DHT22;11000;50.360;7.582;2022-07-03T08:44:45;29.10;86.30
21678;DHT22;11000;50.360;7.582;2022-07-03T08:47:07;28.70;84.30
21678;DHT22;11000;50.360;7.582;2022-07-03T08:49:32;29.10;83.70
21678;DHT22;11000;50.360;7.582;2022-07-03T08:51:53;28.30;85.50
21678;DHT22;11000;50.360;7.582;2022-07-03T08:54:15;28.10;87.00
21678;DHT22;11000;50.360;7.582;2022-07-03T08:56:36;28.70;83.80
21678;DHT22;11000;50.360;7.582;2022-07-03T08:59:00;27.70;86.90
21678;DHT22;11000;50.360;7.582;2022-07-03T09:01:23;28.40;86.00
21678;DHT22;11000;50.360;7.582;2022-07-03T09:03:45;28.80;83.30
21678;DHT22;11000;50.360;7.582;2022-07-03T09:06:06;29.50;78.80
21678;DHT22;11000;50.360;7.582;2022-07-03T09:08:28;29.50;77.10
21678;DHT22;11000;50.360;7.582;2022-07-03T09:10:52;29.50;78.00
21678;DHT22;11000;50.360;7.582;2022-07-03T09:13:12;29.20;77.20
21678;DHT22;11000;50.360;7.582;2022-07-03T09:15:33;29.20;77.10
21678;DHT22;11000;50.360;7.582;2022-07-03T09:20:28;28.90;76.10
21678;DHT22;11000;50.360;7.582;2022-07-03T09:22:50;28.70;79.20
21678;DHT22;11000;50.360;7.582;2022-07-03T09:25:12;29.20;78.80
21678;DHT22;11000;50.360;7.582;2022-07-03T09:27:39;29.80;73.20
21678;DHT22;11000;50.360;7.582;2022-07-03T09:30:09;29.20;73.10
21678;DHT22;11000;50.360;7.582;2022-07-03T09:35:22;29.80;72.40
21678;DHT22;11000;50.360;7.582;2022-07-03T09:37:57;30.70;68.50
21678;DHT22;11000;50.360;7.582;2022-07-03T09:40:19;30.80;65.10
21678;DHT22;11000;50.360;7.582;2022-07-03T09:42:40;30.60;63.20
21678;DHT22;11000;50.360;7.582;2022-07-03T09:45:00;29.50;64.90
21678;DHT22;11000;50.360;7.582;2022-07-03T09:47:22;29.50;67.90
21678;DHT22;11000;50.360;7.582;2022-07-03T09:52:37;30.10;65.40
21678;DHT22;11000;50.360;7.582;2022-07-03T09:57:31;30.20;59.60
21678;DHT22;11000;50.360;7.582;2022-07-03T10:00:15;30.00;60.90
21678;DHT22;11000;50.360;7.582;2022-07-03T10:02:50;30.10;61.60
21678;DHT22;11000;50.360;7.582;2022-07-03T10:05:11;30.40;61.00
21678;DHT22;11000;50.360;7.582;2022-07-03T10:07:53;30.50;59.70
21678;DHT22;11000;50.360;7.582;2022-07-03T10:10:14;29.80;60.80
21678;DHT22;11000;50.360;7.582;2022-07-03T10:12:35;28.90;60.30
21678;DHT22;11000;50.360;7.582;2022-07-03T10:14:56;28.00;63.80
21678;DHT22;11000;50.360;7.582;2022-07-03T10:17:16;27.40;68.00
21678;DHT22;11000;50.360;7.582;2022-07-03T10:19:38;27.60;70.30
21678;DHT22;11000;50.360;7.582;2022-07-03T10:22:01;27.60;69.30
21678;DHT22;11000;50.360;7.582;2022-07-03T10:24:24;27.60;69.70
21678;DHT22;11000;50.360;7.582;2022-07-03T10:26:46;27.50;69.30
21678;DHT22;11000;50.360;7.582;2022-07-03T10:29:08;27.20;70.40
21678;DHT22;11000;50.360;7.582;2022-07-03T10:31:31;27.40;73.00
21678;DHT22;11000;50.360;7.582;2022-07-03T10:33:53;27.50;72.10
21678;DHT22;11000;50.360;7.582;2022-07-03T10:36:14;27.90;71.00
21678;DHT22;11000;50.360;7.582;2022-07-03T10:38:41;28.20;69.70
21678;DHT22;11000;50.360;7.582;2022-07-03T10:41:15;28.30;69.40
21678;DHT22;11000;50.360;7.582;2022-07-03T10:43:55;28.70;67.90
21678;DHT22;11000;50.360;7.582;2022-07-03T10:46:35;29.50;66.20
21678;DHT22;11000;50.360;7.582;2022-07-03T10:49:09;29.60;64.00
21678;DHT22;11000;50.360;7.582;2022-07-03T10:51:50;29.80;63.70
21678;DHT22;11000;50.360;7.582;2022-07-03T10:54:27;29.60;61.00
21678;DHT22;11000;50.360;7.582;2022-07-03T10:59:21;28.90;63.40
21678;DHT22;11000;50.360;7.582;2022-07-03T11:01:42;29.10;64.00
21678;DHT22;11000;50.360;7.582;2022-07-03T11:04:02;28.90;63.70
21678;DHT22;11000;50.360;7.582;2022-07-03T11:09:05;28.30;66.60
21678;DHT22;11000;50.360;7.582;2022-07-03T11:11:46;28.70;69.30
21678;DHT22;11000;50.360;7.582;2022-07-03T11:14:19;29.50;63.90
21678;DHT22;11000;50.360;7.582;2022-07-03T11:16:40;28.90;62.00
21678;DHT22;11000;50.360;7.582;2022-07-03T11:19:00;28.90;62.30
21678;DHT22;11000;50.360;7.582;2022-07-03T11:21:28;29.30;61.80
21678;DHT22;11000;50.360;7.582;2022-07-03T11:24:14;28.90;62.50
21678;DHT22;11000;50.360;7.582;2022-07-03T11:26:37;28.80;64.00
21678;DHT22;11000;50.360;7.582;2022-07-03T11:28:57;29.20;64.00
21678;DHT22;11000;50.360;7.582;2022-07-03T11:31:19;29.40;62.90
21678;DHT22;11000;50.360;7.582;2022-07-03T11:36:32;29.40;63.10
21678;DHT22;11000;50.360;7.582;2022-07-03T11:41:50;29.40;62.00
21678;DHT22;11000;50.360;7.582;2022-07-03T11:44:19;29.20;62.70
21678;DHT22;11000;50.360;7.582;2022-07-03T11:46:46;28.60;63.60
21678;DHT22;11000;50.360;7.582;2022-07-03T11:49:15;29.40;62.50
21678;DHT22;11000;50.360;7.582;2022-07-03T11:51:37;30.00;60.60
21678;DHT22;11000;50.360;7.582;2022-07-03T11:53:57;30.50;59.10
21678;DHT22;11000;50.360;7.582;2022-07-03T11:56:18;30.50;58.40
21678;DHT22;11000;50.360;7.582;2022-07-03T11:58:47;29.60;59.50
21678;DHT22;11000;50.360;7.582;2022-07-03T12:03:44;29.50;60.90
21678;DHT22;11000;50.360;7.582;2022-07-03T12:06:07;30.20;60.60
21678;DHT22;11000;50.360;7.582;2022-07-03T12:08:32;30.80;57.80
21678;DHT22;11000;50.360;7.582;2022-07-03T12:10:58;30.70;56.50
21678;DHT22;11000;50.360;7.582;2022-07-03T12:13:20;31.00;58.10
21678;DHT22;11000;50.360;7.582;2022-07-03T12:15:41;31.70;57.10
21678;DHT22;11000;50.360;7.582;2022-07-03T12:18:02;32.40;55.40
21678;DHT22;11000;50.360;7.582;2022-07-03T12:20:22;32.80;54.30
21678;DHT22;11000;50.360;7.582;2022-07-03T12:22:44;32.70;54.20
21678;DHT22;11000;50.360;7.582;2022-07-03T12:25:06;31.90;52.70
21678;DHT22;11000;50.360;7.582;2022-07-03T12:27:32;32.60;48.20
21678;DHT22;11000;50.360;7.582;2022-07-03T12:29:53;33.20;46.10
21678;DHT22;11000;50.360;7.582;2022-07-03T12:32:14;32.90;44.10
21678;DHT22;11000;50.360;7.582;2022-07-03T12:34:38;32.60;45.70
21678;DHT22;11000;50.360;7.582;2022-07-03T12:37:00;32.70;45.20
21678;DHT22;11000;50.360;7.582;2022-07-03T12:39:20;33.30;45.40
21678;DHT22;11000;50.360;7.582;2022-07-03T12:41:41;33.50;43.00
21678;DHT22;11000;50.360;7.582;2022-07-03T12:44:01;33.60;42.90
21678;DHT22;11000;50.360;7.582;2022-07-03T12:46:27;33.60;42.20
21678;DHT22;11000;50.360;7.582;2022-07-03T12:48:55;33.50;42.50
21678;DHT22;11000;50.360;7.582;2022-07-03T12:51:17;33.60;42.10
21678;DHT22;11000;50.360;7.582;2022-07-03T12:53:55;33.70;40.80
21678;DHT22;11000;50.360;7.582;2022-07-03T12:56:20;33.50;39.80
21678;DHT22;11000;50.360;7.582;2022-07-03T12:58:40;33.80;41.30
21678;DHT22;11000;50.360;7.582;2022-07-03T13:01:32;33.40;42.30
21678;DHT22;11000;50.360;7.582;2022-07-03T13:03:54;33.80;41.90
21678;DHT22;11000;50.360;7.582;2022-07-03T13:06:15;33.70;41.10
21678;DHT22;11000;50.360;7.582;2022-07-03T13:08:36;33.60;41.00
21678;DHT22;11000;50.360;7.582;2022-07-03T13:10:58;33.50;41.50
21678;DHT22;11000;50.360;7.582;2022-07-03T13:13:19;33.50;43.00
21678;DHT22;11000;50.360;7.582;2022-07-03T13:15:40;33.90;41.70
21678;DHT22;11000;50.360;7.582;2022-07-03T13:18:01;34.00;42.30
21678;DHT22;11000;50.360;7.582;2022-07-03T13:20:23;33.80;40.80
21678;DHT22;11000;50.360;7.582;2022-07-03T13:22:44;33.20;41.30
21678;DHT22;11000;50.360;7.582;2022-07-03T13:25:07;32.80;41.90
21678;DHT22;11000;50.360;7.582;2022-07-03T13:27:28;32.60;43.50
21678;DHT22;11000;50.360;7.582;2022-07-03T13:29:49;32.80;43.00
21678;DHT22;11000;50.360;7.582;2022-07-03T13:32:09;32.80;42.50
21678;DHT22;11000;50.360;7.582;2022-07-03T13:34:30;32.70;43.10
21678;DHT22;11000;50.360;7.582;2022-07-03T13:36:50;33.40;42.30
21678;DHT22;11000;50.360;7.582;2022-07-03T13:39:11;33.20;41.90
21678;DHT22;11000;50.360;7.582;2022-07-03T13:41:31;33.20;42.40
21678;DHT22;11000;50.360;7.582;2022-07-03T13:43:52;33.20;43.30
21678;DHT22;11000;50.360;7.582;2022-07-03T13:46:14;33.60;42.20
21678;DHT22;11000;50.360;7.582;2022-07-03T13:48:35;33.80;41.50
21678;DHT22;11000;50.360;7.582;2022-07-03T13:50:55;33.60;42.50
21678;DHT22;11000;50.360;7.582;2022-07-03T13:53:16;33.70;41.90
21678;DHT22;11000;50.360;7.582;2022-07-03T13:55:36;33.80;41.70
21678;DHT22;11000;50.360;7.582;2022-07-03T13:57:57;33.50;41.90
21678;DHT22;11000;50.360;7.582;2022-07-03T14:00:18;33.40;42.40
21678;DHT22;11000;50.360;7.582;2022-07-03T14:02:38;33.00;41.80
21678;DHT22;11000;50.360;7.582;2022-07-03T14:04:59;33.30;41.80
21678;DHT22;11000;50.360;7.582;2022-07-03T14:07:20;33.40;42.50
21678;DHT22;11000;50.360;7.582;2022-07-03T14:09:40;33.50;42.40
21678;DHT22;11000;50.360;7.582;2022-07-03T14:12:01;33.90;41.50
21678;DHT22;11000;50.360;7.582;2022-07-03T14:14:22;33.90;40.90
21678;DHT22;11000;50.360;7.582;2022-07-03T14:16:43;33.50;41.70
21678;DHT22;11000;50.360;7.582;2022-07-03T14:19:05;33.10;41.40
21678;DHT22;11000;50.360;7.582;2022-07-03T14:21:26;32.80;42.30
21678;DHT22;11000;50.360;7.582;2022-07-03T14:23:47;32.80;42.40
21678;DHT22;11000;50.360;7.582;2022-07-03T14:26:07;32.90;43.30
21678;DHT22;11000;50.360;7.582;2022-07-03T14:28:28;33.10;43.20
21678;DHT22;11000;50.360;7.582;2022-07-03T14:31:07;33.10;41.30
21678;DHT22;11000;50.360;7.582;2022-07-03T14:33:45;32.90;42.20
21678;DHT22;11000;50.360;7.582;2022-07-03T14:36:07;32.90;41.30
21678;DHT22;11000;50.360;7.582;2022-07-03T14:38:27;33.10;41.10
21678;DHT22;11000;50.360;7.582;2022-07-03T14:40:48;33.00;41.50
21678;DHT22;11000;50.360;7.582;2022-07-03T14:43:08;33.00;42.70
21678;DHT22;11000;50.360;7.582;2022-07-03T14:45:29;33.20;42.10
21678;DHT22;11000;50.360;7.582;2022-07-03T14:47:50;33.30;41.50
21678;DHT22;11000;50.360;7.582;2022-07-03T14:50:10;33.10;41.50
21678;DHT22;11000;50.360;7.582;2022-07-03T14:52:31;33.20;41.80
21678;DHT22;11000;50.360;7.582;2022-07-03T14:54:54;33.00;42.10
21678;DHT22;11000;50.360;7.582;2022-07-03T15:00:03;33.40;41.40
21678;DHT22;11000;50.360;7.582;2022-07-03T15:02:32;33.40;40.40
21678;DHT22;11000;50.360;7.582;2022-07-03T15:07:26;32.90;41.30
21678;DHT22;11000;50.360;7.582;2022-07-03T15:10:02;32.20;49.00
21678;DHT22;11000;50.360;7.582;2022-07-03T15:12:24;31.80;50.80
21678;DHT22;11000;50.360;7.582;2022-07-03T15:14:49;31.20;53.10
21678;DHT22;11000;50.360;7.582;2022-07-03T15:17:12;31.20;54.00
21678;DHT22;11000;50.360;7.582;2022-07-03T15:19:35;31.20;55.50
21678;DHT22;11000;50.360;7.582;2022-07-03T15:21:56;30.90;55.30
21678;DHT22;11000;50.360;7.582;2022-07-03T15:24:17;31.20;55.40
21678;DHT22;11000;50.360;7.582;2022-07-03T15:26:45;31.20;54.50
21678;DHT22;11000;50.360;7.582;2022-07-03T15:29:06;31.40;55.60
21678;DHT22;11000;50.360;7.582;2022-07-03T15:31:28;31.40;54.80
21678;DHT22;11000;50.360;7.582;2022-07-03T15:33:49;31.20;54.40
21678;DHT22;11000;50.360;7.582;2022-07-03T15:36:10;30.90;54.90
21678;DHT22;11000;50.360;7.582;2022-07-03T15:38:38;30.50;56.30
21678;DHT22;11000;50.360;7.582;2022-07-03T15:41:01;30.10;57.90
21678;DHT22;11000;50.360;7.582;2022-07-03T15:43:53;30.00;60.30
21678;DHT22;11000;50.360;7.582;2022-07-03T15:46:45;29.90;60.30
21678;DHT22;11000;50.360;7.582;2022-07-03T15:49:30;29.40;60.70
21678;DHT22;11000;50.360;7.582;2022-07-03T15:51:56;29.80;61.70
21678;DHT22;11000;50.360;7.582;2022-07-03T15:54:27;30.10;61.00
21678;DHT22;11000;50.360;7.582;2022-07-03T15:56:53;30.30;60.00
21678;DHT22;11000;50.360;7.582;2022-07-03T15:59:16;30.50;60.60
21678;DHT22;11000;50.360;7.582;2022-07-03T16:01:59;30.50;60.60
21678;DHT22;11000;50.360;7.582;2022-07-03T16:07:02;30.70;61.70